This is the latest recevied weather packets stored in our database for station/object K5OLV. If no packets are shown the sender has not sent any weather packets the latest 10 day(s).
| Time | Temp. | Humidity | Pressure | Rain* | Wind** | Luminosity | Snow |
|---|---|---|---|---|---|---|---|
| 1788626326 | 31.67° C | 63% | 1013.6 hPa | 0 mm | - | 672 W/m² | - |
| 1788626023 | 31.67° C | 64% | 1013.6 hPa | 0 mm | - | 661 W/m² | - |
| 1788625719 | 31.67° C | 65% | 1013.9 hPa | 0 mm | - | 688 W/m² | - |
| 1788625418 | 31.67° C | 65% | 1013.8 hPa | 0 mm | - | 718 W/m² | - |
| 1788625113 | 31.11° C | 66% | 1013.8 hPa | 0 mm | - | 701 W/m² | - |
| 1788624812 | 31.11° C | 66% | 1013.9 hPa | 0 mm | - | 707 W/m² | - |
| 1788624510 | 31.11° C | 66% | 1014 hPa | 0 mm | - | 704 W/m² | - |
| 1788624223 | 30.56° C | 67% | 1014 hPa | 0 mm | - | 702 W/m² | - |
| 1788623900 | 30.56° C | 67% | 1014.2 hPa | 0 mm | - | 716 W/m² | - |
| 1788623599 | 30.56° C | 68% | 1014 hPa | 0 mm | - | 708 W/m² | - |
| 1788623293 | 30.56° C | 68% | 1013.9 hPa | 0 mm | - | 718 W/m² | - |
| 1788622989 | 30.56° C | 71% | 1014.1 hPa | 0 mm | - | 692 W/m² | - |
| 1788622684 | 30° C | 72% | 1014.2 hPa | 0 mm | - | 715 W/m² | - |
| 1788622380 | 30° C | 72% | 1014 hPa | 0 mm | - | 726 W/m² | - |
| 1788622074 | 30° C | 76% | 1014.1 hPa | 0 mm | - | 632 W/m² | - |
| 1788621774 | 30° C | 74% | 1014 hPa | 0 mm | - | 661 W/m² | - |
| 1788621474 | 29.44° C | 74% | 1014.3 hPa | 0 mm | - | 638 W/m² | - |
| 1788621170 | 29.44° C | 74% | 1014.3 hPa | 0 mm | - | 620 W/m² | - |
| 1788620864 | 29.44° C | 73% | 1014.1 hPa | 0 mm | - | 604 W/m² | - |
| 1788620564 | 30° C | 72% | 1013.9 hPa | 0 mm | - | 586 W/m² | - |
| 1788620261 | 30° C | 72% | 1014.1 hPa | 0 mm | - | 583 W/m² | - |
| 1788619956 | 29.44° C | 73% | 1014.5 hPa | 0 mm | - | 567 W/m² | - |
| 1788619655 | 28.89° C | 74% | 1014.4 hPa | 0 mm | - | 538 W/m² | - |
| 1788619351 | 28.89° C | 74% | 1014.3 hPa | 0 mm | - | 524 W/m² | - |
| 1788619050 | 28.89° C | 73% | 1014.3 hPa | 0 mm | - | 523 W/m² | - |
* Rain latest hour (hover to see other rain measurements)
** Current wind speed in m/s (hover to see current wind gust speed)